Kiliya — UZDN — position and weather

sailwx.info

Track history (hours):
 
Tides and Currents Weather Stations Pressure Air Temp Water Temp Dewpoint Dewpoint Depression Visibility Wind Speed Wind Dir Waves Ship Positions

Kiliya

Last reported at 2017-Dec-19 08:44 UTC. Time now 2018-Feb-20 08:05 UTC.
Position N 46°32' E 032°03'.
Warning: this ship's position is months out of date.

Length 96 m; draft 2.7 m.

Type: Cargo ship. MMSI: 27202500.

Date/timePositionNaut miles runAvg speedWind from/ knotsBaromVisibWave heightAir tempDewpointWater temp
2017-Dec-19 08:44N 46°32' E 032°03'2 7.7
2017-Dec-19 08:30N 46°32' E 032°01'4 7.9
2017-Dec-19 08:00N 46°34' E 031°56'6 7.7
2017-Dec-19 07:13N 46°35' E 031°47'38 2.2
2017-Dec-18 14:30N 46°32' E 030°53'4 7.5
2017-Dec-18 14:00N 46°30' E 030°48'2 4.5
2017-Dec-18 13:29N 46°30' E 030°45'0 0.0
2017-Dec-18 12:59N 46°30' E 030°45'0 0.0
2017-Dec-18 12:29N 46°30' E 030°45'0 0.0
2017-Dec-18 11:20N 46°30' E 030°45'0 0.0
2017-Dec-18 10:59N 46°30' E 030°45'0 0.0
2017-Dec-18 10:23N 46°30' E 030°45'0 0.0
2017-Dec-18 09:50N 46°30' E 030°45'0 0.0
2017-Dec-18 09:29N 46°30' E 030°45'0 0.0
2017-Dec-18 08:50N 46°30' E 030°45'0 0.0
2017-Dec-18 08:20N 46°30' E 030°45'0 0.0
2017-Dec-18 07:50N 46°30' E 030°45'0 0.0
2017-Dec-18 07:23N 46°30' E 030°45'0 0.0
2017-Dec-18 06:53N 46°30' E 030°45'0 0.0
2017-Dec-18 06:29N 46°30' E 030°45'0 0.0
2017-Dec-18 05:56N 46°30' E 030°45'0 0.0
2017-Dec-18 05:17N 46°30' E 030°45'0 0.0
2017-Dec-18 04:50N 46°30' E 030°45'0 0.0
2017-Dec-18 04:29N 46°30' E 030°45'0 0.0
2017-Dec-18 03:53N 46°30' E 030°45'0 0.0
2017-Dec-18 03:20N 46°30' E 030°45'0 0.0
2017-Dec-18 02:56N 46°30' E 030°45'0 0.0
2017-Dec-18 02:26N 46°30' E 030°45'0 0.0
2017-Dec-18 01:56N 46°30' E 030°45'0 0.0
2017-Dec-18 01:29N 46°30' E 030°45'0 0.0
2017-Dec-18 00:59N 46°30' E 030°45'0 0.0
2017-Dec-18 00:26N 46°30' E 030°45'0 0.0
2017-Dec-17 23:59N 46°30' E 030°45'0 0.0
2017-Dec-17 23:26N 46°30' E 030°45'0 0.0
2017-Dec-17 22:59N 46°30' E 030°45'0 0.0
2017-Dec-17 22:26N 46°30' E 030°45'0 0.0
2017-Dec-17 21:59N 46°30' E 030°45'0 0.0
2017-Dec-17 21:29N 46°30' E 030°45'0 0.0
2017-Dec-17 20:59N 46°30' E 030°45'0 0.0
2017-Dec-17 20:05N 46°30' E 030°45'0 0.1
2017-Dec-17 19:59N 46°30' E 030°45'0 0.0
2017-Dec-17 19:26N 46°30' E 030°45'0 0.0
2017-Dec-17 18:59N 46°30' E 030°45'0 0.0
2017-Dec-17 18:29N 46°30' E 030°45'0 0.0
2017-Dec-17 17:59N 46°30' E 030°45'0 0.0
2017-Dec-17 17:14N 46°30' E 030°45'0 0.0
2017-Dec-17 16:53N 46°30' E 030°45'0 0.0
2017-Dec-17 16:26N 46°30' E 030°45'0 0.0
2017-Dec-17 15:59N 46°30' E 030°45'0 0.0
2017-Dec-17 15:29N 46°30' E 030°45'0 0.0
2017-Dec-17 14:50N 46°30' E 030°45'0 0.0
2017-Dec-17 14:17N 46°30' E 030°45'0 0.0
2017-Dec-17 13:59N 46°30' E 030°45'0 0.0
2017-Dec-17 13:29N 46°30' E 030°45'0 0.0
2017-Dec-17 12:56N 46°30' E 030°45'0 0.0
2017-Dec-17 12:29N 46°30' E 030°45'0 0.0
2017-Dec-17 11:53N 46°30' E 030°45'0 0.0
2017-Dec-17 11:26N 46°30' E 030°45'0 0.0
2017-Dec-17 10:56N 46°30' E 030°45'0 0.0
2017-Dec-17 10:29N 46°30' E 030°45'0 0.0
2017-Dec-17 09:53N 46°30' E 030°45'0 0.0
2017-Dec-17 09:20N 46°30' E 030°45'0 0.0
2017-Dec-17 08:56N 46°30' E 030°45'0 0.0
2017-Dec-17 08:20N 46°30' E 030°45'0 0.0
2017-Dec-17 07:56N 46°30' E 030°45'0 0.0
2017-Dec-17 07:29N 46°30' E 030°45'0 0.0
2017-Dec-17 06:59N 46°30' E 030°45'0 0.0
2017-Dec-17 06:26N 46°30' E 030°45'0 0.0
2017-Dec-17 05:59N 46°30' E 030°45'0 0.0
2017-Dec-17 05:23N 46°30' E 030°45'0 0.0
2017-Dec-17 04:59N 46°30' E 030°45'0 0.0
2017-Dec-17 04:26N 46°30' E 030°45'0 0.0
2017-Dec-17 03:59N 46°30' E 030°45'0 0.0
2017-Dec-17 03:26N 46°30' E 030°45'0 0.0
2017-Dec-17 02:56N 46°30' E 030°45'0 0.0
2017-Dec-17 02:29N 46°30' E 030°45'0 0.0
2017-Dec-17 01:59N 46°30' E 030°45'0 0.0
2017-Dec-17 01:29N 46°30' E 030°45'0 0.0
2017-Dec-17 00:59N 46°30' E 030°45'0 0.0
2017-Dec-17 00:29N 46°30' E 030°45'0 0.0
2017-Dec-16 23:59N 46°30' E 030°45'0 0.0
2017-Dec-16 23:26N 46°30' E 030°45'0 0.0
2017-Dec-16 22:50N 46°30' E 030°45'0 0.0
2017-Dec-16 22:29N 46°30' E 030°45'0 0.0
2017-Dec-16 21:56N 46°30' E 030°45'0 0.0
2017-Dec-16 21:29N 46°30' E 030°45'0 0.0
2017-Dec-16 20:50N 46°30' E 030°45'0 0.0
2017-Dec-16 20:23N 46°30' E 030°45'0 0.0
2017-Dec-16 19:53N 46°30' E 030°45'0 0.0
2017-Dec-16 18:23N 46°30' E 030°45'0 0.0
2017-Dec-16 17:53N 46°30' E 030°45'0 0.0
2017-Dec-16 17:26N 46°30' E 030°45'0 0.0
2017-Dec-16 16:32N 46°30' E 030°45'0 0.0
2017-Dec-16 16:30N 46°30' E 030°45'0 0.0
2017-Dec-16 15:59N 46°30' E 030°45'0 0.0
2017-Dec-16 15:23N 46°30' E 030°45'0 0.0
2017-Dec-16 14:58N 46°30' E 030°45'0 0.0
2017-Dec-16 14:30N 46°30' E 030°45'0 0.0
2017-Dec-16 14:00N 46°30' E 030°45'0 0.0
2017-Dec-16 13:30N 46°30' E 030°45'0 0.5
2017-Dec-16 13:00N 46°30' E 030°45'2 3.1
2017-Dec-16 12:30N 46°31' E 030°46'0 0.3
2017-Dec-16 12:00N 46°31' E 030°46'0 0.0
2017-Dec-16 11:30N 46°31' E 030°46'0 0.0
2017-Dec-16 10:59N 46°31' E 030°46'0 0.0
2017-Dec-16 10:29N 46°31' E 030°46'0 0.0
2017-Dec-16 09:56N 46°31' E 030°46'0 0.0
2017-Dec-16 09:30N 46°31' E 030°46'0 0.0
2017-Dec-16 08:57N 46°31' E 030°46'0 0.0
2017-Dec-16 08:29N 46°31' E 030°46'0 0.0
2017-Dec-16 08:00N 46°31' E 030°46'0 0.0
2017-Dec-16 07:30N 46°31' E 030°46'0 0.0
2017-Dec-16 06:59N 46°31' E 030°46'0 0.0
2017-Dec-16 06:30N 46°31' E 030°46'0 0.0
2017-Dec-16 06:00N 46°31' E 030°46'0 0.0
2017-Dec-16 05:29N 46°31' E 030°46'0 0.0
2017-Dec-16 05:00N 46°31' E 030°46'0 0.0
2017-Dec-16 04:30N 46°31' E 030°46'0 0.0
2017-Dec-16 04:00N 46°31' E 030°46'0 0.0
2017-Dec-16 03:28N 46°31' E 030°46'0 0.0
2017-Dec-16 02:58N 46°31' E 030°46'0 0.0
2017-Dec-16 02:30N 46°31' E 030°46'0 0.0
2017-Dec-16 01:59N 46°31' E 030°46'0 0.0
2017-Dec-16 01:30N 46°31' E 030°46'0 0.0
2017-Dec-16 00:59N 46°31' E 030°46'0 0.0
2017-Dec-16 00:29N 46°31' E 030°46'0 0.0
2017-Dec-15 23:58N 46°31' E 030°46'0 0.0
2017-Dec-15 23:30N 46°31' E 030°46'0 0.0
2017-Dec-15 23:00N 46°31' E 030°46'0 0.0
2017-Dec-15 22:30N 46°31' E 030°46'0 0.0
2017-Dec-15 22:00N 46°31' E 030°46'0 0.0
2017-Dec-15 21:30N 46°31' E 030°46'0 0.0
2017-Dec-15 21:00N 46°31' E 030°46'0 0.0
2017-Dec-15 20:30N 46°31' E 030°46'0 0.0
2017-Dec-15 20:00N 46°31' E 030°46'0 0.0
2017-Dec-15 19:30N 46°31' E 030°46'0 0.0
2017-Dec-15 19:00N 46°31' E 030°46'0 0.6
2017-Dec-15 18:30N 46°31' E 030°47'2 4.5
2017-Dec-15 17:57N 46°31' E 030°50'6 6.5
2017-Dec-15 17:05N 46°33' E 030°58'14 6.9
2017-Dec-15 15:06N 46°35' E 031°18'1 7.1
2017-Dec-15 15:00N 46°35' E 031°19'3 7.0
2017-Dec-15 14:30N 46°35' E 031°24'4 7.0
2017-Dec-15 13:57N 46°36' E 031°29'12 6.5
2017-Dec-15 12:08N 46°36' E 031°46'2 6.9
2017-Dec-15 11:49N 46°35' E 031°49'2 6.9
2017-Dec-15 11:30N 46°35' E 031°52'3 6.8
2017-Dec-15 11:00N 46°34' E 031°57'4 7.2
2017-Dec-15 10:30N 46°32' E 032°02'  
Track history (hours):
 
Tides and Currents Weather Stations Pressure Air Temp Water Temp Dewpoint Dewpoint Depression Visibility Wind Speed Wind Dir Waves Ship Positions

Kiliya

Last reported at 2017-Dec-19 08:44 UTC. Time now 2018-Feb-20 08:05 UTC.
Position N 46°32' E 032°03'.
Warning: this ship's position is months out of date.

Length 96 m; draft 2.7 m.

Type: Cargo ship. MMSI: 27202500.

Date/timePositionNaut miles runAvg speedWind from/ knotsBaromVisibWave heightAir tempDewpointWater temp
2017-Dec-19 08:44N 46°32' E 032°03'2 7.7
2017-Dec-19 08:30N 46°32' E 032°01'4 7.9
2017-Dec-19 08:00N 46°34' E 031°56'6 7.7
2017-Dec-19 07:13N 46°35' E 031°47'38 2.2
2017-Dec-18 14:30N 46°32' E 030°53'4 7.5
2017-Dec-18 14:00N 46°30' E 030°48'2 4.5
2017-Dec-18 13:29N 46°30' E 030°45'0 0.0
2017-Dec-18 12:59N 46°30' E 030°45'0 0.0
2017-Dec-18 12:29N 46°30' E 030°45'0 0.0
2017-Dec-18 11:20N 46°30' E 030°45'0 0.0
2017-Dec-18 10:59N 46°30' E 030°45'0 0.0
2017-Dec-18 10:23N 46°30' E 030°45'0 0.0
2017-Dec-18 09:50N 46°30' E 030°45'0 0.0
2017-Dec-18 09:29N 46°30' E 030°45'0 0.0
2017-Dec-18 08:50N 46°30' E 030°45'0 0.0
2017-Dec-18 08:20N 46°30' E 030°45'0 0.0
2017-Dec-18 07:50N 46°30' E 030°45'0 0.0
2017-Dec-18 07:23N 46°30' E 030°45'0 0.0
2017-Dec-18 06:53N 46°30' E 030°45'0 0.0
2017-Dec-18 06:29N 46°30' E 030°45'0 0.0
2017-Dec-18 05:56N 46°30' E 030°45'0 0.0
2017-Dec-18 05:17N 46°30' E 030°45'0 0.0
2017-Dec-18 04:50N 46°30' E 030°45'0 0.0
2017-Dec-18 04:29N 46°30' E 030°45'0 0.0
2017-Dec-18 03:53N 46°30' E 030°45'0 0.0
2017-Dec-18 03:20N 46°30' E 030°45'0 0.0
2017-Dec-18 02:56N 46°30' E 030°45'0 0.0
2017-Dec-18 02:26N 46°30' E 030°45'0 0.0
2017-Dec-18 01:56N 46°30' E 030°45'0 0.0
2017-Dec-18 01:29N 46°30' E 030°45'0 0.0
2017-Dec-18 00:59N 46°30' E 030°45'0 0.0
2017-Dec-18 00:26N 46°30' E 030°45'0 0.0
2017-Dec-17 23:59N 46°30' E 030°45'0 0.0
2017-Dec-17 23:26N 46°30' E 030°45'0 0.0
2017-Dec-17 22:59N 46°30' E 030°45'0 0.0
2017-Dec-17 22:26N 46°30' E 030°45'0 0.0
2017-Dec-17 21:59N 46°30' E 030°45'0 0.0
2017-Dec-17 21:29N 46°30' E 030°45'0 0.0
2017-Dec-17 20:59N 46°30' E 030°45'0 0.0
2017-Dec-17 20:05N 46°30' E 030°45'0 0.1
2017-Dec-17 19:59N 46°30' E 030°45'0 0.0
2017-Dec-17 19:26N 46°30' E 030°45'0 0.0
2017-Dec-17 18:59N 46°30' E 030°45'0 0.0
2017-Dec-17 18:29N 46°30' E 030°45'0 0.0
2017-Dec-17 17:59N 46°30' E 030°45'0 0.0
2017-Dec-17 17:14N 46°30' E 030°45'0 0.0
2017-Dec-17 16:53N 46°30' E 030°45'0 0.0
2017-Dec-17 16:26N 46°30' E 030°45'0 0.0
2017-Dec-17 15:59N 46°30' E 030°45'0 0.0
2017-Dec-17 15:29N 46°30' E 030°45'0 0.0
2017-Dec-17 14:50N 46°30' E 030°45'0 0.0
2017-Dec-17 14:17N 46°30' E 030°45'0 0.0
2017-Dec-17 13:59N 46°30' E 030°45'0 0.0
2017-Dec-17 13:29N 46°30' E 030°45'0 0.0
2017-Dec-17 12:56N 46°30' E 030°45'0 0.0
2017-Dec-17 12:29N 46°30' E 030°45'0 0.0
2017-Dec-17 11:53N 46°30' E 030°45'0 0.0
2017-Dec-17 11:26N 46°30' E 030°45'0 0.0
2017-Dec-17 10:56N 46°30' E 030°45'0 0.0
2017-Dec-17 10:29N 46°30' E 030°45'0 0.0
2017-Dec-17 09:53N 46°30' E 030°45'0 0.0
2017-Dec-17 09:20N 46°30' E 030°45'0 0.0
2017-Dec-17 08:56N 46°30' E 030°45'0 0.0
2017-Dec-17 08:20N 46°30' E 030°45'0 0.0
2017-Dec-17 07:56N 46°30' E 030°45'0 0.0
2017-Dec-17 07:29N 46°30' E 030°45'0 0.0
2017-Dec-17 06:59N 46°30' E 030°45'0 0.0
2017-Dec-17 06:26N 46°30' E 030°45'0 0.0
2017-Dec-17 05:59N 46°30' E 030°45'0 0.0
2017-Dec-17 05:23N 46°30' E 030°45'0 0.0
2017-Dec-17 04:59N 46°30' E 030°45'0 0.0
2017-Dec-17 04:26N 46°30' E 030°45'0 0.0
2017-Dec-17 03:59N 46°30' E 030°45'0 0.0
2017-Dec-17 03:26N 46°30' E 030°45'0 0.0
2017-Dec-17 02:56N 46°30' E 030°45'0 0.0
2017-Dec-17 02:29N 46°30' E 030°45'0 0.0
2017-Dec-17 01:59N 46°30' E 030°45'0 0.0
2017-Dec-17 01:29N 46°30' E 030°45'0 0.0
2017-Dec-17 00:59N 46°30' E 030°45'0 0.0
2017-Dec-17 00:29N 46°30' E 030°45'0 0.0
2017-Dec-16 23:59N 46°30' E 030°45'0 0.0
2017-Dec-16 23:26N 46°30' E 030°45'0 0.0
2017-Dec-16 22:50N 46°30' E 030°45'0 0.0
2017-Dec-16 22:29N 46°30' E 030°45'0 0.0
2017-Dec-16 21:56N 46°30' E 030°45'0 0.0
2017-Dec-16 21:29N 46°30' E 030°45'0 0.0
2017-Dec-16 20:50N 46°30' E 030°45'0 0.0
2017-Dec-16 20:23N 46°30' E 030°45'0 0.0
2017-Dec-16 19:53N 46°30' E 030°45'0 0.0
2017-Dec-16 18:23N 46°30' E 030°45'0 0.0
2017-Dec-16 17:53N 46°30' E 030°45'0 0.0
2017-Dec-16 17:26N 46°30' E 030°45'0 0.0
2017-Dec-16 16:32N 46°30' E 030°45'0 0.0
2017-Dec-16 16:30N 46°30' E 030°45'0 0.0
2017-Dec-16 15:59N 46°30' E 030°45'0 0.0
2017-Dec-16 15:23N 46°30' E 030°45'0 0.0
2017-Dec-16 14:58N 46°30' E 030°45'0 0.0
2017-Dec-16 14:30N 46°30' E 030°45'0 0.0
2017-Dec-16 14:00N 46°30' E 030°45'0 0.0
2017-Dec-16 13:30N 46°30' E 030°45'0 0.5
2017-Dec-16 13:00N 46°30' E 030°45'2 3.1
2017-Dec-16 12:30N 46°31' E 030°46'0 0.3
2017-Dec-16 12:00N 46°31' E 030°46'0 0.0
2017-Dec-16 11:30N 46°31' E 030°46'0 0.0
2017-Dec-16 10:59N 46°31' E 030°46'0 0.0
2017-Dec-16 10:29N 46°31' E 030°46'0 0.0
2017-Dec-16 09:56N 46°31' E 030°46'0 0.0
2017-Dec-16 09:30N 46°31' E 030°46'0 0.0
2017-Dec-16 08:57N 46°31' E 030°46'0 0.0
2017-Dec-16 08:29N 46°31' E 030°46'0 0.0
2017-Dec-16 08:00N 46°31' E 030°46'0 0.0
2017-Dec-16 07:30N 46°31' E 030°46'0 0.0
2017-Dec-16 06:59N 46°31' E 030°46'0 0.0
2017-Dec-16 06:30N 46°31' E 030°46'0 0.0
2017-Dec-16 06:00N 46°31' E 030°46'0 0.0
2017-Dec-16 05:29N 46°31' E 030°46'0 0.0
2017-Dec-16 05:00N 46°31' E 030°46'0 0.0
2017-Dec-16 04:30N 46°31' E 030°46'0 0.0
2017-Dec-16 04:00N 46°31' E 030°46'0 0.0
2017-Dec-16 03:28N 46°31' E 030°46'0 0.0
2017-Dec-16 02:58N 46°31' E 030°46'0 0.0
2017-Dec-16 02:30N 46°31' E 030°46'0 0.0
2017-Dec-16 01:59N 46°31' E 030°46'0 0.0
2017-Dec-16 01:30N 46°31' E 030°46'0 0.0
2017-Dec-16 00:59N 46°31' E 030°46'0 0.0
2017-Dec-16 00:29N 46°31' E 030°46'0 0.0
2017-Dec-15 23:58N 46°31' E 030°46'0 0.0
2017-Dec-15 23:30N 46°31' E 030°46'0 0.0
2017-Dec-15 23:00N 46°31' E 030°46'0 0.0
2017-Dec-15 22:30N 46°31' E 030°46'0 0.0
2017-Dec-15 22:00N 46°31' E 030°46'0 0.0
2017-Dec-15 21:30N 46°31' E 030°46'0 0.0
2017-Dec-15 21:00N 46°31' E 030°46'0 0.0
2017-Dec-15 20:30N 46°31' E 030°46'0 0.0
2017-Dec-15 20:00N 46°31' E 030°46'0 0.0
2017-Dec-15 19:30N 46°31' E 030°46'0 0.0
2017-Dec-15 19:00N 46°31' E 030°46'0 0.6
2017-Dec-15 18:30N 46°31' E 030°47'2 4.5
2017-Dec-15 17:57N 46°31' E 030°50'6 6.5
2017-Dec-15 17:05N 46°33' E 030°58'14 6.9
2017-Dec-15 15:06N 46°35' E 031°18'1 7.1
2017-Dec-15 15:00N 46°35' E 031°19'3 7.0
2017-Dec-15 14:30N 46°35' E 031°24'4 7.0
2017-Dec-15 13:57N 46°36' E 031°29'12 6.5
2017-Dec-15 12:08N 46°36' E 031°46'2 6.9
2017-Dec-15 11:49N 46°35' E 031°49'2 6.9
2017-Dec-15 11:30N 46°35' E 031°52'3 6.8
2017-Dec-15 11:00N 46°34' E 031°57'4 7.2
2017-Dec-15 10:30N 46°32' E 032°02'  

Dump ship's entire track history